Time;durP1;ratioP1;P1;durP2;ratioP2;P2;SDS_P1;SDS_P2;PMS_P1;PMS_P2;Temp;Humidity;BMP_temperature;BMP_pressure;BME280_temperature;BME280_humidity;BME280_pressure;Samples;Min_cycle;Max_cycle;Signal;HPM_P1;HPM_P2
2023/07/17 00:00:11;;;;;;;12.05;3.28;;;;;;;15.93;100.00;101358.38;5051261;28;20040;-49
2023/07/17 00:02:36;;;;;;;7.15;2.80;;;;;;;15.89;100.00;101347.97;5050218;28;20033;-46
2023/07/17 00:05:04;;;;;;;11.05;2.88;;;;;;;15.77;100.00;101329.03;5050511;28;20538;-52
2023/07/17 00:07:29;;;;;;;10.27;3.20;;;;;;;15.83;100.00;101353.56;5044902;28;20095;-50
2023/07/17 00:09:54;;;;;;;10.82;3.53;;;;;;;15.81;100.00;101358.94;5041414;28;20037;-46
2023/07/17 00:12:20;;;;;;;10.48;2.83;;;;;;;15.43;100.00;101299.63;5013089;28;20098;-48
2023/07/17 00:14:45;;;;;;;6.38;2.22;;;;;;;15.37;100.00;101283.97;5034266;28;20116;-46
2023/07/17 00:17:11;;;;;;;10.15;2.83;;;;;;;15.79;100.00;101358.13;5037238;28;20075;-51
2023/07/17 00:19:37;;;;;;;6.72;2.63;;;;;;;15.75;100.00;101357.44;5030934;28;20086;-48
2023/07/17 00:22:03;;;;;;;9.00;3.00;;;;;;;15.37;100.00;101289.28;5009927;28;1095936;-50
2023/07/17 00:24:28;;;;;;;7.80;2.67;;;;;;;15.72;100.00;101362.88;5031109;28;20041;-47
2023/07/17 00:26:54;;;;;;;5.40;2.58;;;;;;;15.33;100.00;101285.03;5030035;28;20122;-45
2023/07/17 00:29:24;;;;;;;10.18;2.45;;;;;;;15.41;100.00;101304.13;5031461;28;20378;-48
2023/07/17 00:31:50;;;;;;;9.90;2.60;;;;;;;15.73;100.00;101358.44;5041257;28;20025;-47
2023/07/17 00:34:16;;;;;;;9.00;3.00;;;;;;;15.64;100.00;101353.56;5049659;28;20040;-48
2023/07/17 00:36:42;;;;;;;7.97;2.42;;;;;;;15.29;100.00;101288.78;5013899;28;20041;-53
2023/07/17 00:39:07;;;;;;;6.82;2.58;;;;;;;15.23;100.00;101284.56;5031567;28;20046;-44
2023/07/17 00:41:33;;;;;;;9.73;3.22;;;;;;;15.26;100.00;101286.25;5031614;28;20041;-51
2023/07/17 00:43:58;;;;;;;6.10;2.70;;;;;;;15.60;100.00;101351.94;5050072;28;20037;-51
2023/07/17 00:46:24;;;;;;;11.25;3.50;;;;;;;15.36;100.00;101306.13;5051368;28;20048;-47
2023/07/17 00:48:49;;;;;;;7.00;2.80;;;;;;;15.33;100.00;101297.44;5033839;28;20040;-47
2023/07/17 00:51:15;;;;;;;7.88;2.70;;;;;;;15.42;100.00;101327.06;5033788;28;20566;-48
2023/07/17 00:53:40;;;;;;;8.77;2.75;;;;;;;15.59;100.00;101364.34;5050354;28;20078;-48
2023/07/17 00:56:05;;;;;;;8.52;2.88;;;;;;;15.55;100.00;101349.53;5046256;28;20471;-48
2023/07/17 00:58:31;;;;;;;7.05;2.70;;;;;;;15.16;100.00;101287.56;5052540;28;20033;-49
2023/07/17 01:00:56;;;;;;;6.25;3.03;;;;;;;15.21;100.00;101298.84;5054445;28;20041;-51
2023/07/17 01:03:22;;;;;;;11.95;3.17;;;;;;;15.20;100.00;101289.19;5055078;28;20120;-47
2023/07/17 01:05:47;;;;;;;7.90;2.92;;;;;;;15.56;100.00;101343.25;5035816;28;20167;-49
2023/07/17 01:08:15;;;;;;;15.27;3.60;;;;;;;15.23;100.00;101294.34;5054756;28;20037;-45
2023/07/17 01:10:40;;;;;;;9.57;3.05;;;;;;;15.18;100.00;101296.31;5053592;28;20036;-47
2023/07/17 01:13:05;;;;;;;9.18;3.00;;;;;;;15.59;100.00;101368.78;5051079;28;20041;-48
2023/07/17 01:15:30;;;;;;;6.68;2.80;;;;;;;15.54;100.00;101370.78;5054891;28;20082;-49
2023/07/17 01:17:56;;;;;;;8.07;2.97;;;;;;;15.52;100.00;101378.84;5037040;28;20365;-49
2023/07/17 01:20:21;;;;;;;8.27;2.83;;;;;;;15.46;100.00;101379.06;5051515;28;20037;-45
2023/07/17 01:22:54;;;;;;;10.65;4.03;;;;;;;14.97;100.00;101303.41;5034428;28;20115;-50
2023/07/17 01:25:19;;;;;;;6.20;2.70;;;;;;;15.35;100.00;101364.56;5034527;28;20495;-49
2023/07/17 01:27:45;;;;;;;11.00;3.45;;;;;;;15.46;100.00;101373.78;5034325;28;20034;-46
2023/07/17 01:30:11;;;;;;;10.57;3.33;;;;;;;15.46;100.00;101380.84;5034632;28;20069;-48
2023/07/17 01:32:36;;;;;;;10.10;3.35;;;;;;;15.48;100.00;101385.19;5046738;28;20120;-47
2023/07/17 01:35:02;;;;;;;10.60;3.33;;;;;;;15.47;100.00;101378.16;5054286;28;20624;-48
2023/07/17 01:37:28;;;;;;;9.95;3.42;;;;;;;15.48;100.00;101386.97;5054200;28;20076;-46
2023/07/17 01:39:53;;;;;;;8.40;2.90;;;;;;;15.07;100.00;101320.66;5053997;28;20055;-45
2023/07/17 01:42:18;;;;;;;9.65;3.30;;;;;;;15.49;100.00;101386.94;5054186;28;20411;-47
2023/07/17 01:44:43;;;;;;;10.60;3.65;;;;;;;15.01;100.00;101299.72;5054233;28;20036;-45
2023/07/17 01:47:09;;;;;;;10.05;4.00;;;;;;;15.06;100.00;101308.31;5050800;28;20029;-48
2023/07/17 01:49:34;;;;;;;9.05;3.60;;;;;;;15.47;100.00;101379.97;5054075;28;20048;-50
2023/07/17 01:52:00;;;;;;;10.52;3.95;;;;;;;15.53;100.00;101382.34;5054101;28;20032;-49
2023/07/17 01:54:25;;;;;;;12.10;3.83;;;;;;;15.51;100.00;101384.19;5053817;28;20037;-51
2023/07/17 01:56:51;;;;;;;12.10;3.72;;;;;;;15.08;100.00;101310.94;5053601;28;20060;-47
2023/07/17 01:59:16;;;;;;;15.88;3.80;;;;;;;15.34;100.00;101346.91;5053971;28;20037;-52
2023/07/17 02:01:42;;;;;;;13.18;3.63;;;;;;;15.42;100.00;101358.91;5051888;28;20503;-51
2023/07/17 02:04:07;;;;;;;12.40;3.80;;;;;;;15.42;100.00;101366.88;5053879;28;20120;-46
2023/07/17 02:06:32;;;;;;;15.25;4.97;;;;;;;15.49;100.00;101371.00;5053293;28;20124;-46
2023/07/17 02:08:58;;;;;;;8.70;4.22;;;;;;;15.04;100.00;101296.94;5053255;28;20091;-47
2023/07/17 02:11:29;;;;;;;11.35;3.75;;;;;;;15.48;100.00;101371.06;5052447;28;20041;-50
2023/07/17 02:13:54;;;;;;;9.43;3.78;;;;;;;15.46;100.00;101359.63;5053868;28;20374;-45
2023/07/17 02:16:20;;;;;;;12.10;4.35;;;;;;;15.18;100.00;101302.50;5032564;28;20095;-53
2023/07/17 02:18:45;;;;;;;11.57;4.30;;;;;;;15.57;100.00;101357.41;5021383;28;20071;-51
2023/07/17 02:21:10;;;;;;;10.57;4.32;;;;;;;15.56;100.00;101350.34;5053277;28;20067;-47
2023/07/17 02:23:35;;;;;;;14.50;4.97;;;;;;;15.78;100.00;101382.97;5053687;28;20174;-50
2023/07/17 02:26:01;;;;;;;13.88;4.93;;;;;;;15.77;100.00;101376.81;5052284;28;20044;-48
2023/07/17 02:28:26;;;;;;;14.40;4.85;;;;;;;15.86;100.00;101386.13;5035443;28;20076;-46
2023/07/17 02:30:51;;;;;;;10.57;4.50;;;;;;;15.48;100.00;101313.56;5053401;28;20035;-48
2023/07/17 02:33:17;;;;;;;11.38;4.60;;;;;;;15.77;100.00;101384.75;5052320;28;20075;-48
2023/07/17 02:35:42;;;;;;;13.38;5.28;;;;;;;15.58;100.00;101356.47;5052165;28;20041;-46
2023/07/17 02:38:07;;;;;;;14.15;4.70;;;;;;;15.22;100.00;101313.84;5053183;28;20033;-45
2023/07/17 02:40:33;;;;;;;18.98;6.50;;;;;;;15.23;100.00;101319.06;5035151;28;20033;-50
2023/07/17 02:42:58;;;;;;;11.93;5.60;;;;;;;15.66;100.00;101386.19;5052966;28;20032;-49
2023/07/17 02:45:23;;;;;;;13.18;5.97;;;;;;;15.69;100.00;101381.59;5035339;28;20033;-51
2023/07/17 02:47:49;;;;;;;12.27;6.53;;;;;;;15.61;100.00;101373.13;5050111;28;20082;-49
2023/07/17 02:50:14;;;;;;;15.75;5.75;;;;;;;15.70;100.00;101385.13;5053008;28;20118;-49
2023/07/17 02:52:41;;;;;;;16.05;6.28;;;;;;;15.32;100.00;101333.72;5050324;28;20476;-50
2023/07/17 02:55:07;;;;;;;17.33;5.57;;;;;;;15.71;100.00;101408.06;5052961;28;20041;-47
2023/07/17 02:57:34;;;;;;;12.02;6.22;;;;;;;15.31;100.00;101326.69;5052872;28;20430;-50
2023/07/17 03:00:00;;;;;;;9.82;5.55;;;;;;;15.41;100.00;101345.72;5034283;28;20025;-48
2023/07/17 03:02:25;;;;;;;14.18;5.82;;;;;;;15.68;100.00;101401.09;5033528;28;20025;-45
2023/07/17 03:04:50;;;;;;;12.18;6.57;;;;;;;15.23;100.00;101321.69;5033477;28;20033;-50
2023/07/17 03:07:16;;;;;;;16.55;6.25;;;;;;;15.60;100.00;101394.41;5033054;28;20035;-48
2023/07/17 03:09:41;;;;;;;14.23;6.60;;;;;;;15.38;100.00;101367.06;5033312;28;20033;-50
2023/07/17 03:12:06;;;;;;;13.07;6.63;;;;;;;15.57;100.00;101403.38;5032905;28;20476;-52
2023/07/17 03:14:32;;;;;;;19.48;6.95;;;;;;;15.15;100.00;101337.09;5035178;28;20025;-46
2023/07/17 03:16:57;;;;;;;16.25;6.30;;;;;;;15.58;100.00;101404.25;5050956;28;20068;-50
2023/07/17 03:19:22;;;;;;;15.43;7.00;;;;;;;15.45;100.00;101392.38;5050704;28;20425;-49
2023/07/17 03:21:48;;;;;;;16.95;7.13;;;;;;;15.51;100.00;101416.91;5052245;28;20087;-49
2023/07/17 03:24:13;;;;;;;14.70;6.95;;;;;;;15.49;100.00;101413.47;5033994;28;20175;-51
2023/07/17 03:26:38;;;;;;;14.55;6.78;;;;;;;15.45;100.00;101408.31;5032628;28;20128;-47
2023/07/17 03:29:04;;;;;;;14.40;6.63;;;;;;;14.99;100.00;101344.00;5032259;28;20033;-48
2023/07/17 03:31:29;;;;;;;17.70;7.47;;;;;;;15.02;100.00;101348.31;5032409;28;20037;-51
2023/07/17 03:33:54;;;;;;;15.00;6.13;;;;;;;14.97;100.00;101337.88;5030405;28;20095;-51
2023/07/17 03:36:20;;;;;;;16.40;7.03;;;;;;;15.41;100.00;101418.19;5032829;28;20033;-51
2023/07/17 03:38:45;;;;;;;16.08;6.93;;;;;;;15.38;100.00;101398.91;5032210;28;20033;-46
2023/07/17 03:41:10;;;;;;;16.58;7.05;;;;;;;14.54;100.00;101269.06;5040485;28;20036;-47
2023/07/17 03:43:36;;;;;;;17.02;7.85;;;;;;;15.25;100.00;101401.22;5052197;28;20067;-48
2023/07/17 03:46:01;;;;;;;15.00;7.18;;;;;;;15.19;100.00;101417.38;5046711;28;20041;-48
2023/07/17 03:48:26;;;;;;;16.83;7.28;;;;;;;14.91;100.00;101369.97;5032913;28;20033;-47
2023/07/17 03:50:52;;;;;;;14.68;7.35;;;;;;;15.04;100.00;101381.78;5032370;28;20033;-48
2023/07/17 03:53:17;;;;;;;17.88;7.60;;;;;;;15.16;100.00;101406.91;5017818;28;20037;-44
2023/07/17 03:55:42;;;;;;;13.90;7.53;;;;;;;14.77;100.00;101342.31;5031717;28;20041;-49
2023/07/17 03:58:07;;;;;;;17.42;7.93;;;;;;;15.25;100.00;101419.78;5031989;28;20485;-45
2023/07/17 04:00:33;;;;;;;21.23;7.63;;;;;;;15.25;100.00;101389.75;5032329;28;20086;-46
2023/07/17 04:02:58;;;;;;;17.63;7.68;;;;;;;15.15;100.00;101363.63;5032263;28;20034;-47
2023/07/17 04:05:23;;;;;;;20.92;9.20;;;;;;;15.62;100.00;101427.03;5031888;28;20440;-44
2023/07/17 04:07:50;;;;;;;21.92;9.68;;;;;;;15.50;100.00;101409.03;5031695;28;20044;-45
2023/07/17 04:10:16;;;;;;;16.88;7.80;;;;;;;15.48;100.00;101426.78;5030897;28;20038;-46
2023/07/17 04:12:42;;;;;;;17.10;8.07;;;;;;;15.31;100.00;101427.47;5031550;28;20045;-47
2023/07/17 04:15:08;;;;;;;17.40;7.88;;;;;;;15.17;100.00;101433.38;5019342;28;20041;-47
2023/07/17 04:17:33;;;;;;;19.60;8.15;;;;;;;15.04;100.00;101433.94;5031865;28;20033;-49
2023/07/17 04:19:58;;;;;;;20.52;8.48;;;;;;;14.63;100.00;101379.97;5014435;28;20044;-47
2023/07/17 04:22:24;;;;;;;20.33;8.38;;;;;;;14.49;100.00;101366.41;5031936;28;20115;-46
2023/07/17 04:24:49;;;;;;;20.85;8.55;;;;;;;14.75;100.00;101413.06;5031580;28;20163;-47
2023/07/17 04:27:14;;;;;;;16.63;7.45;;;;;;;14.42;100.00;101363.13;5031564;28;20033;-48
2023/07/17 04:29:40;;;;;;;15.60;7.68;;;;;;;14.80;100.00;101441.09;5031921;28;20033;-49
2023/07/17 04:32:05;;;;;;;17.67;7.93;;;;;;;14.41;100.00;101361.44;5028643;28;20037;-50
2023/07/17 04:34:31;;;;;;;14.00;6.90;;;;;;;14.85;100.00;101436.50;5035726;28;20049;-47
2023/07/17 04:36:57;;;;;;;13.70;6.50;;;;;;;14.52;100.00;101375.09;5035496;28;20042;-48
2023/07/17 04:39:22;;;;;;;15.05;7.57;;;;;;;14.88;100.00;101433.72;5035289;28;20048;-46
2023/07/17 04:41:49;;;;;;;17.60;7.35;;;;;;;14.57;100.00;101370.47;5053198;28;20041;-48
2023/07/17 04:44:14;;;;;;;13.57;7.70;;;;;;;14.66;100.00;101374.53;5036823;28;20056;-47
2023/07/17 04:46:39;;;;;;;15.65;6.53;;;;;;;15.06;100.00;101435.59;5055391;28;20476;-46
2023/07/17 04:49:05;;;;;;;15.70;6.97;;;;;;;14.77;100.00;101382.06;5052953;28;20044;-45
2023/07/17 04:51:30;;;;;;;16.48;6.85;;;;;;;15.22;100.00;101457.03;5054973;28;20108;-47
2023/07/17 04:53:56;;;;;;;15.02;6.75;;;;;;;15.21;100.00;101461.47;5054949;28;20037;-48
2023/07/17 04:56:21;;;;;;;17.40;6.63;;;;;;;15.04;100.00;101416.25;5055212;28;20025;-46
2023/07/17 04:58:46;;;;;;;16.42;6.57;;;;;;;14.98;100.00;101405.88;5054447;28;20136;-45
2023/07/17 05:01:12;;;;;;;11.88;6.25;;;;;;;15.46;100.00;101466.63;5045673;28;20439;-46
2023/07/17 05:03:37;;;;;;;11.75;6.43;;;;;;;15.54;100.00;101469.84;5050938;28;20499;-47
2023/07/17 05:06:03;;;;;;;13.93;6.13;;;;;;;15.55;100.00;101445.03;5046471;28;20037;-47
2023/07/17 05:08:28;;;;;;;11.57;6.20;;;;;;;15.72;100.00;101468.19;5017078;28;20045;-46
2023/07/17 05:10:58;;;;;;;16.95;6.80;;;;;;;15.50;100.00;101425.78;5038909;28;20044;-48
2023/07/17 05:13:24;;;;;;;11.15;5.85;;;;;;;15.78;100.00;101459.97;5054913;28;20029;-47
2023/07/17 05:15:50;;;;;;;16.63;6.30;;;;;;;15.62;100.00;101421.72;5053988;28;20036;-49
2023/07/17 05:18:16;;;;;;;17.58;7.30;;;;;;;15.81;100.00;101459.81;5040546;28;20374;-47
2023/07/17 05:20:45;;;;;;;15.52;6.70;;;;;;;15.99;100.00;101488.22;5049984;28;20100;-49
2023/07/17 05:23:11;;;;;;;12.32;6.70;;;;;;;15.54;100.00;101421.22;5034668;28;20084;-49
2023/07/17 05:25:36;;;;;;;14.02;5.30;;;;;;;15.84;100.00;101466.78;5033197;28;20473;-47
2023/07/17 05:28:02;;;;;;;13.88;6.65;;;;;;;15.69;100.00;101434.69;5034210;28;20037;-49
2023/07/17 05:30:27;;;;;;;15.02;5.68;;;;;;;16.14;100.00;101505.25;5032743;28;20405;-46
2023/07/17 05:32:52;;;;;;;13.00;6.20;;;;;;;16.17;100.00;101505.97;5034811;28;20065;-50
2023/07/17 05:35:17;;;;;;;16.95;6.35;;;;;;;15.95;100.00;101448.59;5048118;28;20119;-47
2023/07/17 05:37:43;;;;;;;16.17;6.38;;;;;;;16.00;100.00;101452.75;5052994;28;20039;-45
2023/07/17 05:40:09;;;;;;;12.40;6.43;;;;;;;16.38;100.00;101493.50;5054330;28;20488;-48
2023/07/17 05:42:34;;;;;;;16.88;5.72;;;;;;;16.03;100.00;101430.50;5054477;28;20105;-46
2023/07/17 05:44:59;;;;;;;11.32;5.30;;;;;;;16.59;100.00;101520.91;5052263;28;20048;-48
2023/07/17 05:47:25;;;;;;;14.55;5.75;;;;;;;16.71;100.00;101515.91;5054165;28;20030;-48
2023/07/17 05:49:50;;;;;;;12.25;5.60;;;;;;;16.81;100.00;101522.50;5045620;28;20437;-46
2023/07/17 05:52:15;;;;;;;12.88;5.40;;;;;;;16.98;100.00;101527.03;5034072;28;20052;-46
2023/07/17 05:54:41;;;;;;;12.90;5.00;;;;;;;17.11;100.00;101522.81;5049387;28;20045;-49
2023/07/17 05:57:06;;;;;;;12.27;5.00;;;;;;;16.87;100.00;101462.84;5034079;28;20038;-45
2023/07/17 05:59:31;;;;;;;14.48;5.72;;;;;;;17.44;100.00;101541.59;5035493;28;20080;-46
2023/07/17 06:01:57;;;;;;;11.60;5.13;;;;;;;17.50;100.00;101548.41;5036356;28;20048;-44
2023/07/17 06:04:22;;;;;;;9.25;4.18;;;;;;;17.00;100.00;101487.91;5033824;28;20029;-49
2023/07/17 06:06:47;;;;;;;8.77;4.20;;;;;;;17.29;100.00;101550.34;5033372;28;20042;-50
2023/07/17 06:09:13;;;;;;;7.35;4.32;;;;;;;17.30;100.00;101552.06;5034137;28;20483;-51
2023/07/17 06:11:38;;;;;;;11.20;4.80;;;;;;;16.29;100.00;101377.91;5034058;28;20531;-51
2023/07/17 06:14:03;;;;;;;8.35;4.20;;;;;;;17.57;100.00;101557.88;5034079;28;20477;-47
2023/07/17 06:16:29;;;;;;;12.52;4.90;;;;;;;17.57;100.00;101572.00;5034352;28;20091;-46
2023/07/17 06:18:54;;;;;;;13.15;4.53;;;;;;;17.56;100.00;101566.78;5033769;28;20034;-44
2023/07/17 06:21:19;;;;;;;12.90;5.05;;;;;;;17.62;100.00;101567.34;5033196;28;20508;-46
2023/07/17 06:23:45;;;;;;;11.15;4.40;;;;;;;17.73;100.00;101577.44;5034480;28;20091;-46
2023/07/17 06:26:10;;;;;;;10.07;4.60;;;;;;;17.72;100.00;101576.59;5053559;28;20037;-50
2023/07/17 06:28:35;;;;;;;11.73;4.50;;;;;;;17.65;100.00;101575.19;5053497;28;20032;-48
2023/07/17 06:31:00;;;;;;;12.75;4.88;;;;;;;17.71;100.00;101577.53;5039209;28;20120;-45
2023/07/17 06:33:26;;;;;;;11.18;4.43;;;;;;;17.78;100.00;101576.28;5033403;28;20477;-50
2023/07/17 06:35:51;;;;;;;10.10;4.35;;;;;;;17.90;100.00;101564.13;5041520;28;20591;-48
2023/07/17 06:38:16;;;;;;;11.23;4.25;;;;;;;17.84;100.00;101516.50;5053387;28;20041;-46
2023/07/17 06:40:42;;;;;;;7.18;4.03;;;;;;;18.17;100.00;101564.50;5037966;28;20120;-47
2023/07/17 06:43:08;;;;;;;7.13;3.95;;;;;;;18.32;100.00;101596.56;5048837;28;20128;-47
2023/07/17 06:45:34;;;;;;;8.68;4.20;;;;;;;18.25;100.00;101576.50;5033074;28;20042;-47
2023/07/17 06:47:59;;;;;;;8.15;3.83;;;;;;;17.85;100.00;101537.75;5032573;28;20042;-50
2023/07/17 06:50:25;;;;;;;11.65;4.05;;;;;;;18.22;100.00;101573.13;5032988;28;20037;-49
2023/07/17 06:52:50;;;;;;;9.52;4.00;;;;;;;18.04;100.00;101534.97;5032690;28;20033;-47
2023/07/17 06:55:16;;;;;;;10.55;4.38;;;;;;;18.49;100.00;101596.56;5035475;28;20591;-48
2023/07/17 06:57:41;;;;;;;11.48;3.83;;;;;;;18.38;100.00;101542.94;5052861;28;20129;-46
2023/07/17 07:00:07;;;;;;;10.50;4.28;;;;;;;18.55;100.00;101523.38;5051840;28;20044;-49
2023/07/17 07:02:32;;;;;;;10.18;3.60;;;;;;;19.18;100.00;101603.44;5036005;28;20041;-47
2023/07/17 07:04:58;;;;;;;8.15;3.78;;;;;;;19.18;100.00;101601.66;5014569;28;20048;-50
2023/07/17 07:07:23;;;;;;;8.60;3.50;;;;;;;18.73;100.00;101556.19;5032712;28;20041;-46
2023/07/17 07:09:48;;;;;;;6.60;3.25;;;;;;;19.07;100.00;101622.75;5032215;28;20045;-49
2023/07/17 07:12:14;;;;;;;7.07;3.17;;;;;;;18.95;100.00;101618.06;5047237;28;20167;-45
2023/07/17 07:14:39;;;;;;;9.00;3.22;;;;;;;18.95;100.00;101621.59;5033426;28;20480;-48
2023/07/17 07:17:05;;;;;;;6.28;3.10;;;;;;;18.86;100.00;101615.91;5034651;28;20032;-49
2023/07/17 07:19:30;;;;;;;6.60;3.35;;;;;;;18.94;100.00;101641.22;5052320;28;20033;-50
2023/07/17 07:21:55;;;;;;;7.38;3.35;;;;;;;18.84;100.00;101600.00;5052148;28;20558;-52
2023/07/17 07:24:21;;;;;;;7.97;2.70;;;;;;;19.07;100.00;101609.41;5052528;28;20033;-49
2023/07/17 07:26:46;;;;;;;6.40;2.80;;;;;;;19.07;100.00;101583.56;5051351;28;20538;-48
2023/07/17 07:29:11;;;;;;;5.80;2.72;;;;;;;19.50;100.00;101646.13;5048406;28;20041;-48
2023/07/17 07:31:37;;;;;;;5.97;2.40;;;;;;;19.74;100.00;101637.66;5052574;28;20040;-51
2023/07/17 07:34:02;;;;;;;5.97;2.67;;;;;;;19.92;100.00;101650.81;5052344;28;20033;-49
2023/07/17 07:36:28;;;;;;;5.40;2.30;;;;;;;19.93;100.00;101632.97;5051949;28;20495;-49
2023/07/17 07:38:54;;;;;;;5.43;2.33;;;;;;;19.92;100.00;101609.88;5052342;28;20044;-48
2023/07/17 07:41:19;;;;;;;5.20;2.85;;;;;;;20.40;100.00;101670.28;5051001;28;20526;-52
2023/07/17 07:43:45;;;;;;;8.05;2.88;;;;;;;20.35;100.00;101656.31;5051286;28;20041;-50
2023/07/17 07:46:10;;;;;;;5.05;2.83;;;;;;;20.61;100.00;101629.69;5037265;28;20607;-46
2023/07/17 07:48:35;;;;;;;5.65;2.65;;;;;;;21.10;100.00;101624.00;5043000;28;20118;-52
2023/07/17 07:51:01;;;;;;;7.10;2.45;;;;;;;21.71;100.00;101690.53;5034050;28;20400;-49
2023/07/17 07:53:26;;;;;;;3.95;2.25;;;;;;;21.63;100.00;101693.72;5048444;28;20038;-46
2023/07/17 07:55:51;;;;;;;9.65;2.47;;;;;;;20.92;100.00;101634.03;5032080;28;20116;-50
2023/07/17 07:58:17;;;;;;;6.93;2.60;;;;;;;20.88;100.00;101694.03;5039469;28;20037;-49
2023/07/17 08:00:42;;;;;;;8.95;2.38;;;;;;;20.28;100.00;101637.13;5051960;28;20037;-49
2023/07/17 08:03:07;;;;;;;6.90;2.40;;;;;;;20.36;100.00;101691.00;5037272;28;20038;-51
2023/07/17 08:05:33;;;;;;;5.60;2.17;;;;;;;20.06;100.00;101698.97;5033029;28;20038;-50
2023/07/17 08:07:58;;;;;;;7.70;2.55;;;;;;;19.74;100.00;101693.75;5036338;28;20095;-50
2023/07/17 08:10:24;;;;;;;5.15;2.55;;;;;;;20.08;100.00;101691.72;5036290;28;20034;-49
2023/07/17 08:12:49;;;;;;;6.43;2.33;;;;;;;20.71;100.00;101633.53;5035926;28;20048;-50
2023/07/17 08:15:14;;;;;;;7.35;2.30;;;;;;;21.98;100.00;101694.09;5056032;28;20098;-46
2023/07/17 08:17:39;;;;;;;6.18;1.90;;;;;;;22.26;100.00;101704.72;5055939;28;20033;-49
2023/07/17 08:20:06;;;;;;;4.65;2.40;;;;;;;22.36;100.00;101718.34;5043569;28;20500;-47
2023/07/17 08:22:32;;;;;;;7.20;2.20;;;;;;;22.11;100.00;101654.81;5035753;28;20084;-48
2023/07/17 08:24:57;;;;;;;7.88;2.55;;;;;;;22.23;100.00;101710.28;5035915;28;20077;-48
2023/07/17 08:27:22;;;;;;;5.32;2.47;;;;;;;22.08;100.00;101697.91;5035979;28;20068;-47
2023/07/17 08:29:48;;;;;;;4.47;2.22;;;;;;;21.52;100.00;101661.41;5048735;28;20029;-49
2023/07/17 08:32:13;;;;;;;6.70;2.63;;;;;;;21.13;100.00;101662.13;5055806;28;20029;-51
2023/07/17 08:34:39;;;;;;;4.30;2.15;;;;;;;20.98;100.00;101705.91;5037686;28;20025;-49
2023/07/17 08:37:04;;;;;;;5.38;2.55;;;;;;;20.85;100.00;101714.78;5040706;28;20037;-47
2023/07/17 08:39:29;;;;;;;5.53;2.13;;;;;;;20.62;100.00;101686.75;5055996;28;20036;-51
2023/07/17 08:41:55;;;;;;;5.55;2.25;;;;;;;20.80;100.00;101720.41;5056059;28;20065;-49
2023/07/17 08:44:21;;;;;;;5.53;2.33;;;;;;;20.37;100.00;101655.28;5054963;28;20040;-47
2023/07/17 08:46:47;;;;;;;4.47;2.20;;;;;;;20.99;100.00;101696.91;5038094;28;20094;-47
2023/07/17 08:49:15;;;;;;;3.97;2.00;;;;;;;21.37;100.00;101717.75;5037751;28;20423;-52
2023/07/17 08:51:40;;;;;;;4.95;2.47;;;;;;;21.23;100.00;101660.59;5046450;28;20065;-48
2023/07/17 08:54:06;;;;;;;5.38;2.38;;;;;;;21.58;100.00;101647.59;5050629;28;20503;-48
2023/07/17 08:56:31;;;;;;;5.55;2.10;;;;;;;22.04;100.00;101620.44;5035384;28;20044;-49
2023/07/17 08:58:57;;;;;;;3.90;2.05;;;;;;;23.24;100.00;101677.28;5038808;28;20059;-49
2023/07/17 09:01:22;;;;;;;5.32;1.80;;;;;;;23.46;100.00;101685.56;5037501;28;20025;-50
2023/07/17 09:03:51;;;;;;;4.88;1.80;;;;;;;23.29;100.00;101735.09;5055078;28;20128;-52
2023/07/17 09:06:23;;;;;;;4.00;1.80;;;;;;;23.27;100.00;101730.78;5054919;28;20028;-53
2023/07/17 09:08:48;;;;;;;4.95;1.98;;;;;;;23.16;100.00;101736.94;5051369;28;20082;-47
2023/07/17 09:11:15;;;;;;;6.13;2.15;;;;;;;23.16;100.00;101685.03;5035057;28;20435;-51
2023/07/17 09:13:42;;;;;;;5.07;1.95;;;;;;;23.61;100.00;101659.41;5035144;28;20025;-49
2023/07/17 09:16:25;;;;;;;6.05;2.25;;;;;;;24.03;100.00;101700.06;5016551;28;20120;-49
2023/07/17 09:18:53;;;;;;;5.53;2.30;;;;;;;24.17;100.00;101735.88;5034993;28;20121;-48
2023/07/17 09:21:23;;;;;;;5.82;1.92;;;;;;;23.18;100.00;101688.47;5034302;28;20045;-53
2023/07/17 09:23:50;;;;;;;5.50;2.13;;;;;;;22.86;100.00;101688.06;5034821;28;20083;-49
2023/07/17 09:26:17;;;;;;;5.85;2.25;;;;;;;22.73;100.00;101690.78;5038909;28;20044;-51
2023/07/17 09:28:48;;;;;;;5.13;2.30;;;;;;;23.36;100.00;101757.00;5053789;28;20124;-47
2023/07/17 09:31:15;;;;;;;3.90;1.75;;;;;;;22.95;100.00;101690.97;5054482;28;20037;-47
2023/07/17 09:33:40;;;;;;;5.60;1.92;;;;;;;22.71;100.00;101749.03;5054627;28;20098;-49
2023/07/17 09:36:09;;;;;;;6.45;2.03;;;;;;;22.33;100.00;101723.91;5051386;28;20111;-48
2023/07/17 09:38:34;;;;;;;6.53;2.03;;;;;;;22.12;100.00;101624.34;5052894;28;20035;-47
2023/07/17 09:40:59;;;;;;;6.75;2.38;;;;;;;22.49;100.00;101743.41;5038961;28;20033;-46
2023/07/17 09:43:30;;;;;;;6.97;2.00;;;;;;;21.93;100.00;101736.44;5035129;28;20385;-48
2023/07/17 09:45:58;;;;;;;3.97;1.65;;;;;;;21.42;100.00;101758.53;5052867;28;20098;-49
2023/07/17 09:48:26;;;;;;;4.85;2.65;;;;;;;20.86;100.00;101760.19;5016531;28;20044;-49
2023/07/17 09:50:51;;;;;;;5.63;1.63;;;;;;;20.97;100.00;101738.09;5034251;28;20035;-48
2023/07/17 09:53:18;;;;;;;9.98;2.10;;;;;;;21.73;100.00;101681.44;5028422;28;20388;-50
2023/07/17 09:55:44;;;;;;;4.75;1.95;;;;;;;23.29;100.00;101750.38;5032986;28;20044;-47
2023/07/17 09:58:10;;;;;;;6.30;2.28;;;;;;;23.34;100.00;101707.91;5039487;28;20025;-48
2023/07/17 10:00:37;;;;;;;5.10;2.20;;;;;;;23.09;100.00;101710.63;5036171;28;20112;-49
2023/07/17 10:03:09;;;;;;;4.38;2.38;;;;;;;22.63;100.00;101731.72;5054105;28;20037;-51
2023/07/17 10:05:35;;;;;;;7.18;2.50;;;;;;;22.17;100.00;101755.44;5036041;28;20044;-46
2023/07/17 10:08:03;;;;;;;7.47;3.25;;;;;;;22.05;100.00;101751.72;5019440;28;20021;-51
2023/07/17 10:10:29;;;;;;;5.32;2.75;;;;;;;21.64;100.00;101692.75;5026305;28;20040;-48
2023/07/17 10:12:55;;;;;;;6.22;3.05;;;;;;;21.95;100.00;101742.56;5035182;28;20477;-47
2023/07/17 10:15:21;;;;;;;6.95;2.92;;;;;;;21.53;100.00;101689.91;5052624;28;20106;-48
2023/07/17 10:17:55;;;;;;;10.73;3.50;;;;;;;21.59;100.00;101756.50;5053819;28;20041;-47
2023/07/17 10:20:20;;;;;;;11.88;3.33;;;;;;;22.07;100.00;101682.78;5035975;28;20120;-46
2023/07/17 10:22:46;;;;;;;7.90;3.30;;;;;;;23.45;100.00;101762.63;5053967;28;20539;-46
2023/07/17 10:25:18;;;;;;;8.00;2.83;;;;;;;24.77;100.00;101763.50;5053362;28;20527;-48
2023/07/17 10:27:47;;;;;;;9.48;3.30;;;;;;;25.62;100.00;101776.50;5053087;28;20033;-47
2023/07/17 10:30:36;;;;;;;6.50;3.42;;;;;;;25.19;100.00;101794.31;5039592;28;20524;-50
2023/07/17 10:33:07;;;;;;;9.00;3.20;;;;;;;24.08;100.00;101775.00;5029240;28;20466;-49
2023/07/17 10:35:52;;;;;;;8.07;4.18;;;;;;;21.98;100.00;101766.47;5042735;28;20072;-50
2023/07/17 10:38:31;;;;;;;8.30;3.45;;;;;;;21.69;100.00;101749.59;5037549;28;20029;-46
2023/07/17 10:41:12;;;;;;;8.60;4.25;;;;;;;22.51;100.00;101745.97;5040162;28;20029;-51
2023/07/17 10:43:50;;;;;;;9.18;3.85;;;;;;;23.39;100.00;101744.25;5039906;28;20079;-47
2023/07/17 10:46:15;;;;;;;8.23;3.95;;;;;;;24.04;100.00;101707.16;5032957;28;20046;-47
2023/07/17 10:48:41;;;;;;;8.32;4.00;;;;;;;24.78;100.00;101719.41;5033355;28;20038;-48
2023/07/17 10:51:06;;;;;;;10.57;4.45;;;;;;;24.65;100.00;101791.34;5041323;28;20059;-45
2023/07/17 10:53:32;;;;;;;7.10;3.88;;;;;;;24.06;100.00;101776.97;5030713;28;20071;-50
2023/07/17 10:55:57;;;;;;;6.13;4.07;;;;;;;23.67;100.00;101778.03;5039941;28;20844;-49
2023/07/17 10:58:23;;;;;;;8.13;3.88;;;;;;;23.18;100.00;101713.50;5038455;28;20073;-49
2023/07/17 11:00:49;;;;;;;7.72;4.00;;;;;;;23.22;100.00;101703.41;5044885;28;20051;-50
2023/07/17 11:03:16;;;;;;;6.05;4.00;;;;;;;23.33;100.00;101774.19;5034358;28;20108;-49
2023/07/17 11:05:42;;;;;;;9.70;3.70;;;;;;;23.08;100.00;101786.78;5032699;28;20041;-49
2023/07/17 11:08:09;;;;;;;7.65;4.10;;;;;;;22.32;100.00;101711.50;5035556;28;20508;-51